Time;durP1;ratioP1;P1;durP2;ratioP2;P2;SDS_P1;SDS_P2;PMS_P1;PMS_P2;Temp;Humidity;BMP_temperature;BMP_pressure;BME280_temperature;BME280_humidity;BME280_pressure;Samples;Min_cycle;Max_cycle;Signal;HPM_P1;HPM_P2
2022/08/08 00:00:55;;;;;;;6.43;3.80;;;19.80;62.20;;;;;;5121648;28;20472;-32
2022/08/08 00:03:30;;;;;;;2.97;2.53;;;19.80;62.50;;;;;;5121523;28;20444;-34
2022/08/08 00:06:02;;;;;;;3.10;2.70;;;19.80;62.20;;;;;;5121947;28;20467;-34
2022/08/08 00:08:36;;;;;;;3.80;2.83;;;19.80;62.40;;;;;;5121744;28;20409;-34
2022/08/08 00:11:12;;;;;;;5.03;2.80;;;19.80;62.40;;;;;;5121491;28;20523;-31
2022/08/08 00:13:42;;;;;;;4.50;3.07;;;19.80;62.70;;;;;;5121593;28;20428;-33
2022/08/08 00:16:15;;;;;;;3.90;3.40;;;19.70;63.10;;;;;;5121746;28;20440;-33
2022/08/08 00:18:52;;;;;;;8.63;3.30;;;19.70;63.00;;;;;;5121450;28;20460;-32
2022/08/08 00:21:32;;;;;;;11.10;3.73;;;19.60;63.00;;;;;;5121253;27;20456;-33
2022/08/08 00:24:05;;;;;;;6.33;3.27;;;19.60;63.50;;;;;;5121294;28;20456;-32
2022/08/08 00:26:38;;;;;;;4.60;3.17;;;19.60;63.40;;;;;;5121178;28;20485;-34
2022/08/08 00:29:11;;;;;;;3.70;2.60;;;19.60;63.60;;;;;;5121131;28;20425;-33
2022/08/08 00:31:47;;;;;;;5.83;2.97;;;19.60;63.70;;;;;;5121140;28;20418;-33
2022/08/08 00:37:27;;;;;;;7.80;3.13;;;19.60;64.00;;;;;;5121070;28;20520;-34
2022/08/08 00:40:12;;;;;;;3.77;3.37;;;19.60;64.10;;;;;;5120884;28;20460;-35
2022/08/08 00:43:04;;;;;;;3.63;2.80;;;19.60;64.30;;;;;;5120829;28;20480;-35
2022/08/08 00:45:57;;;;;;;5.00;2.67;;;19.60;63.90;;;;;;5121074;28;20446;-34
2022/08/08 00:49:01;;;;;;;5.10;2.43;;;19.50;64.00;;;;;;5120789;28;20424;-34
2022/08/08 00:52:03;;;;;;;8.80;3.13;;;19.50;63.90;;;;;;5120576;28;20418;-33
2022/08/08 00:55:03;;;;;;;3.50;2.80;;;19.60;64.20;;;;;;5120582;28;20453;-34
2022/08/08 00:58:15;;;;;;;3.70;2.43;;;19.50;64.20;;;;;;5120109;28;20461;-34
2022/08/08 01:00:51;;;;;;;4.40;2.80;;;19.50;64.40;;;;;;5120651;28;20426;-34
2022/08/08 01:03:53;;;;;;;3.70;3.03;;;19.50;64.60;;;;;;5120454;28;20472;-32
2022/08/08 01:07:05;;;;;;;5.40;2.30;;;19.40;64.50;;;;;;5119764;28;20471;-35
2022/08/08 01:10:11;;;;;;;3.73;2.90;;;19.40;64.70;;;;;;5120389;28;20461;-37
2022/08/08 01:13:23;;;;;;;4.90;2.83;;;19.40;65.30;;;;;;5120253;28;20457;-34
2022/08/08 01:16:05;;;;;;;4.13;2.90;;;19.30;65.40;;;;;;5120501;28;20429;-33
2022/08/08 01:19:07;;;;;;;4.10;2.47;;;19.20;65.60;;;;;;5120416;28;20422;-36
2022/08/08 01:21:52;;;;;;;4.20;2.93;;;19.30;65.70;;;;;;5117075;28;20429;-35
2022/08/08 01:24:43;;;;;;;4.50;2.60;;;19.30;65.70;;;;;;5120174;28;20441;-35
2022/08/08 01:27:45;;;;;;;3.30;2.07;;;19.30;65.70;;;;;;5119985;28;20537;-36
2022/08/08 01:30:47;;;;;;;4.53;2.10;;;19.30;65.90;;;;;;5120016;28;20461;-33
2022/08/08 01:33:41;;;;;;;7.07;2.90;;;19.30;65.90;;;;;;5119947;28;20472;-34
2022/08/08 01:36:41;;;;;;;7.10;2.70;;;19.20;66.20;;;;;;5119635;28;20469;-33
2022/08/08 01:39:19;;;;;;;3.20;2.20;;;19.20;66.10;;;;;;5115361;28;20492;-32
2022/08/08 01:41:55;;;;;;;4.77;2.80;;;19.20;66.30;;;;;;5119817;28;20488;-34
2022/08/08 01:44:53;;;;;;;3.97;2.50;;;19.20;66.30;;;;;;5119801;28;20449;-31
2022/08/08 01:47:37;;;;;;;6.70;2.90;;;19.20;66.60;;;;;;5119663;28;20469;-33
2022/08/08 01:50:18;;;;;;;2.90;2.57;;;19.20;66.90;;;;;;5119773;28;20461;-35
2022/08/08 01:52:54;;;;;;;4.00;2.87;;;19.10;67.10;;;;;;5119623;28;20406;-33
2022/08/08 01:55:29;;;;;;;4.30;2.87;;;19.10;67.50;;;;;;5119149;28;20476;-33
2022/08/08 01:58:15;;;;;;;4.67;2.17;;;19.00;67.30;;;;;;5119592;28;20457;-35
2022/08/08 02:00:59;;;;;;;3.60;3.00;;;19.00;67.60;;;;;;5119510;28;20465;-33
2022/08/08 02:03:35;;;;;;;3.27;2.17;;;18.90;68.10;;;;;;5119393;27;20473;-32
2022/08/08 02:06:13;;;;;;;4.60;3.10;;;18.90;68.50;;;;;;5119183;28;20532;-32
2022/08/08 02:08:51;;;;;;;3.73;2.67;;;18.90;68.60;;;;;;5119109;28;20405;-32
2022/08/08 02:11:31;;;;;;;5.00;2.40;;;18.90;68.70;;;;;;5119183;28;20638;-34
2022/08/08 02:14:03;;;;;;;4.43;2.87;;;18.90;68.30;;;;;;5119225;28;20410;-33
2022/08/08 02:16:55;;;;;;;3.80;2.60;;;18.90;68.20;;;;;;5119140;28;20417;-34
2022/08/08 02:19:26;;;;;;;3.90;2.47;;;18.90;68.40;;;;;;5118958;28;20437;-33
2022/08/08 02:24:55;;;;;;;3.90;2.50;;;18.90;68.30;;;;;;5119228;28;20409;-33
2022/08/08 02:27:34;;;;;;;5.90;3.10;;;18.90;68.50;;;;;;5118889;28;20512;-32
2022/08/08 02:30:08;;;;;;;5.00;2.63;;;18.90;68.40;;;;;;5118864;28;20452;-36
2022/08/08 02:33:03;;;;;;;3.37;2.63;;;18.90;68.60;;;;;;5119023;27;20477;-34
2022/08/08 02:35:55;;;;;;;5.50;2.90;;;18.90;68.90;;;;;;5118787;28;20465;-32
2022/08/08 02:39:06;;;;;;;2.23;1.87;;;18.90;69.10;;;;;;5119058;28;20414;-32
2022/08/08 02:41:50;;;;;;;2.80;2.50;;;18.80;69.20;;;;;;5118679;28;20406;-34
2022/08/08 02:45:12;;;;;;;11.37;2.50;;;18.80;69.90;;;;;;5118767;28;20402;-34
2022/08/08 02:48:24;;;;;;;3.80;2.60;;;18.80;70.10;;;;;;5049002;28;20511;-34
2022/08/08 02:51:39;;;;;;;3.57;2.40;;;18.80;70.00;;;;;;5118702;28;20424;-33
2022/08/08 02:54:34;;;;;;;2.90;2.60;;;18.70;70.00;;;;;;5037257;28;20485;-34
2022/08/08 02:57:44;;;;;;;4.00;2.20;;;18.70;70.50;;;;;;5114522;28;20467;-34
2022/08/08 03:00:22;;;;;;;3.97;2.40;;;18.70;70.90;;;;;;5118882;28;20457;-32
2022/08/08 03:03:34;;;;;;;3.80;2.80;;;18.60;71.10;;;;;;5118559;28;20418;-33
2022/08/08 03:06:39;;;;;;;10.23;2.70;;;18.60;71.40;;;;;;5118365;28;20450;-33
2022/08/08 03:09:56;;;;;;;3.73;2.53;;;18.60;71.90;;;;;;5118743;28;20481;-32
2022/08/08 03:12:55;;;;;;;5.50;2.07;;;18.60;72.20;;;;;;5118705;28;20606;-32
2022/08/08 03:16:07;;;;;;;2.67;2.27;;;18.50;72.40;;;;;;5117968;28;20517;-33
2022/08/08 03:18:45;;;;;;;5.20;2.70;;;18.50;72.90;;;;;;5083601;28;20468;-37
2022/08/08 03:21:11;;;;;;;4.03;2.70;;;18.50;73.50;;;;;;5118042;28;20472;-31
2022/08/08 03:23:41;;;;;;;3.57;2.70;;;18.50;73.60;;;;;;5118219;28;20428;-33
2022/08/08 03:26:11;;;;;;;3.23;2.00;;;18.50;73.50;;;;;;5118172;28;20520;-32
2022/08/08 03:28:46;;;;;;;3.07;2.40;;;18.50;73.90;;;;;;5118241;28;20409;-33
2022/08/08 03:34:05;;;;;;;5.60;2.87;;;18.50;73.90;;;;;;5118572;28;20411;-33
2022/08/08 03:36:32;;;;;;;5.03;3.00;;;18.50;73.90;;;;;;5118043;28;20457;-34
2022/08/08 03:39:01;;;;;;;4.60;2.70;;;18.40;73.80;;;;;;5118179;28;20492;-33
2022/08/08 03:41:32;;;;;;;4.03;2.67;;;18.40;74.30;;;;;;5117931;28;20422;-32
2022/08/08 03:43:59;;;;;;;3.10;2.47;;;18.30;74.30;;;;;;5118110;28;20453;-34
2022/08/08 03:46:26;;;;;;;7.97;3.07;;;18.30;74.70;;;;;;5117775;28;20528;-35
2022/08/08 03:48:57;;;;;;;2.90;2.23;;;18.30;75.00;;;;;;5118071;28;20437;-35
2022/08/08 03:51:24;;;;;;;10.00;3.50;;;18.20;75.20;;;;;;5117867;28;20467;-34
2022/08/08 03:53:51;;;;;;;3.47;3.00;;;18.20;75.60;;;;;;5117968;28;20452;-38
2022/08/08 03:56:23;;;;;;;7.00;3.37;;;18.20;75.90;;;;;;5118035;28;20489;-31
2022/08/08 03:58:51;;;;;;;4.17;2.57;;;18.20;76.20;;;;;;5117996;28;20501;-34
2022/08/08 04:01:19;;;;;;;6.20;2.43;;;18.20;76.60;;;;;;5117674;28;20475;-32
2022/08/08 04:03:47;;;;;;;5.37;2.60;;;18.10;76.90;;;;;;5118112;28;20460;-34
2022/08/08 04:06:15;;;;;;;3.70;3.13;;;18.10;77.30;;;;;;5116348;28;20464;-33
2022/08/08 04:08:42;;;;;;;7.10;2.50;;;18.10;77.80;;;;;;5116728;28;20442;-32
2022/08/08 04:11:11;;;;;;;7.00;3.23;;;18.10;78.00;;;;;;5117793;28;20445;-33
2022/08/08 04:13:39;;;;;;;3.90;2.77;;;18.20;78.10;;;;;;5117948;28;20421;-32
2022/08/08 04:16:07;;;;;;;4.20;2.37;;;18.10;78.40;;;;;;5117869;28;20473;-34
2022/08/08 04:18:33;;;;;;;7.33;2.77;;;18.10;78.80;;;;;;5118880;28;20437;-34
2022/08/08 04:21:06;;;;;;;3.67;3.00;;;18.20;78.90;;;;;;5121378;28;20429;-33
2022/08/08 04:23:33;;;;;;;5.60;4.17;;;18.20;79.20;;;;;;5121511;28;20429;-32
2022/08/08 04:26:01;;;;;;;3.10;2.60;;;18.20;79.70;;;;;;5121368;28;20434;-33
2022/08/08 04:28:27;;;;;;;6.87;2.73;;;18.20;79.90;;;;;;5121341;28;20493;-36
2022/08/08 04:30:56;;;;;;;8.00;3.00;;;18.10;80.10;;;;;;5121356;28;20405;-35
2022/08/08 04:33:24;;;;;;;3.20;2.43;;;18.10;80.60;;;;;;5121424;28;20417;-34
2022/08/08 04:35:51;;;;;;;2.97;2.50;;;18.10;81.80;;;;;;5121145;28;20484;-34
2022/08/08 04:38:18;;;;;;;3.80;3.00;;;18.00;81.20;;;;;;5121259;28;20470;-35
2022/08/08 04:40:45;;;;;;;8.93;2.53;;;18.00;82.10;;;;;;5121133;28;20474;-37
2022/08/08 04:43:12;;;;;;;3.67;2.67;;;18.00;83.10;;;;;;5120831;28;20452;-35
2022/08/08 04:45:39;;;;;;;5.10;2.57;;;17.90;83.60;;;;;;5121185;28;20505;-36
2022/08/08 04:48:07;;;;;;;3.03;2.73;;;17.90;84.20;;;;;;5121103;28;20473;-34
2022/08/08 04:50:34;;;;;;;13.53;3.00;;;17.90;85.20;;;;;;5121060;28;20465;-32
2022/08/08 04:53:01;;;;;;;4.67;2.53;;;17.90;86.00;;;;;;5121185;28;20402;-33
2022/08/08 04:55:31;;;;;;;5.00;3.00;;;17.90;86.50;;;;;;5121155;28;20418;-32
2022/08/08 04:57:58;;;;;;;7.77;2.67;;;17.90;87.30;;;;;;5120945;28;20441;-34
2022/08/08 05:00:27;;;;;;;3.40;3.07;;;17.90;88.00;;;;;;5120901;28;20433;-34
2022/08/08 05:02:54;;;;;;;4.53;2.90;;;17.90;88.20;;;;;;5100011;28;20458;-56
2022/08/08 05:05:22;;;;;;;5.17;3.10;;;17.90;88.80;;;;;;5096671;28;21040;-57
2022/08/08 05:07:56;;;;;;;5.03;3.00;;;18.00;88.90;;;;;;5097430;28;20478;-60
2022/08/08 05:10:23;;;;;;;3.33;2.50;;;18.00;88.80;;;;;;5098151;28;20461;-58
2022/08/08 05:12:57;;;;;;;5.00;2.80;;;18.00;89.10;;;;;;5097998;28;20449;-51
2022/08/08 05:15:24;;;;;;;7.80;3.57;;;18.10;90.20;;;;;;5098331;28;20430;-53
2022/08/08 05:17:51;;;;;;;7.43;3.20;;;18.10;89.40;;;;;;5097632;28;20448;-54
2022/08/08 05:20:18;;;;;;;5.03;3.20;;;18.10;89.50;;;;;;5096562;28;20832;-58
2022/08/08 05:22:49;;;;;;;4.60;2.87;;;18.20;90.30;;;;;;5096890;28;20453;-51
2022/08/08 05:25:16;;;;;;;4.27;2.47;;;18.20;90.30;;;;;;5097432;28;20422;-56
2022/08/08 05:27:43;;;;;;;6.23;3.40;;;18.20;90.30;;;;;;5097220;28;20527;-57
2022/08/08 05:30:11;;;;;;;4.80;3.30;;;18.30;90.60;;;;;;5096919;28;20669;-60
2022/08/08 05:32:38;;;;;;;3.70;2.90;;;18.30;90.70;;;;;;5098459;28;20442;-57
2022/08/08 05:35:06;;;;;;;3.70;2.77;;;18.40;90.50;;;;;;5097474;28;20433;-56
2022/08/08 05:37:38;;;;;;;3.83;3.10;;;18.40;90.50;;;;;;5096875;28;20453;-56
2022/08/08 05:40:08;;;;;;;10.67;2.90;;;18.50;90.00;;;;;;5098795;28;20963;-59
2022/08/08 05:42:39;;;;;;;4.87;3.57;;;18.50;89.90;;;;;;5097029;28;20430;-46
2022/08/08 05:45:08;;;;;;;3.23;2.93;;;18.60;90.60;;;;;;5096507;28;20460;-56
2022/08/08 05:47:37;;;;;;;4.00;3.57;;;18.70;90.40;;;;;;5096132;28;20558;-54
2022/08/08 05:50:06;;;;;;;8.00;3.60;;;18.70;90.10;;;;;;5096086;28;20475;-53
2022/08/08 05:52:34;;;;;;;8.10;4.10;;;18.80;90.50;;;;;;5097243;28;20448;-57
2022/08/08 05:55:01;;;;;;;9.43;4.40;;;18.80;90.10;;;;;;5096539;28;20485;-51
2022/08/08 05:57:33;;;;;;;6.77;3.40;;;18.80;90.30;;;;;;5095788;28;20537;-57
2022/08/08 06:00:05;;;;;;;7.40;2.63;;;18.90;90.10;;;;;;5096559;28;20564;-58
2022/08/08 06:05:19;;;;;;;3.90;3.30;;;19.00;90.30;;;;;;5096305;28;20451;-54
2022/08/08 06:07:47;;;;;;;6.60;3.57;;;19.00;90.30;;;;;;5105935;28;20481;-43
2022/08/08 06:10:15;;;;;;;4.60;3.20;;;19.10;91.20;;;;;;5113930;28;20437;-44
2022/08/08 06:12:44;;;;;;;5.67;3.30;;;19.20;92.70;;;;;;5113890;28;20430;-48
2022/08/08 06:15:12;;;;;;;5.70;3.30;;;19.30;91.30;;;;;;5114640;28;20459;-45
2022/08/08 06:17:42;;;;;;;5.63;3.40;;;19.40;90.60;;;;;;5113655;28;20490;-47
2022/08/08 06:20:11;;;;;;;4.50;3.40;;;19.50;90.30;;;;;;5115710;28;20426;-49
2022/08/08 06:22:39;;;;;;;4.13;3.50;;;19.60;90.20;;;;;;5110050;28;20441;-43
2022/08/08 06:25:07;;;;;;;10.73;3.60;;;19.70;90.40;;;;;;5111660;28;20458;-52
2022/08/08 06:27:40;;;;;;;4.63;3.17;;;19.70;90.10;;;;;;5103918;28;20486;-39
2022/08/08 06:30:11;;;;;;;4.67;2.90;;;19.80;89.80;;;;;;5108625;28;20476;-58
2022/08/08 06:32:43;;;;;;;8.93;4.00;;;19.80;90.00;;;;;;5105064;28;20461;-56
2022/08/08 06:35:12;;;;;;;7.97;3.10;;;19.90;89.80;;;;;;5101702;28;20437;-52
2022/08/08 06:37:45;;;;;;;7.67;4.00;;;20.00;89.40;;;;;;5100866;28;20478;-51
2022/08/08 06:40:14;;;;;;;5.20;2.77;;;20.00;88.70;;;;;;5100206;28;20453;-49
2022/08/08 06:42:47;;;;;;;8.80;4.30;;;20.00;88.50;;;;;;5100608;28;20825;-54
2022/08/08 06:45:16;;;;;;;4.63;3.30;;;20.10;89.40;;;;;;5098332;28;20440;-57
2022/08/08 06:47:44;;;;;;;6.67;3.73;;;20.20;89.20;;;;;;5097643;28;20481;-58
2022/08/08 06:50:11;;;;;;;3.97;3.10;;;20.30;87.60;;;;;;5098398;28;20474;-57
2022/08/08 06:52:39;;;;;;;8.20;4.00;;;20.40;88.20;;;;;;5098336;28;20566;-57
2022/08/08 06:55:07;;;;;;;4.10;2.80;;;20.50;86.30;;;;;;5098092;28;20519;-58
2022/08/08 06:57:34;;;;;;;6.83;3.70;;;20.50;85.60;;;;;;5098427;28;20548;-50
2022/08/08 07:00:03;;;;;;;5.60;3.60;;;20.70;85.60;;;;;;5100901;28;20441;-51
2022/08/08 07:02:33;;;;;;;5.63;3.13;;;20.80;86.30;;;;;;5099918;28;20449;-58
2022/08/08 07:05:04;;;;;;;7.43;3.60;;;20.80;85.30;;;;;;5098182;28;20457;-57
2022/08/08 07:07:47;;;;;;;6.17;3.83;;;20.90;85.60;;;;;;5097057;28;20564;-57
2022/08/08 07:10:19;;;;;;;9.50;3.40;;;21.00;85.50;;;;;;5098325;28;20468;-54
2022/08/08 07:12:51;;;;;;;7.37;3.60;;;21.10;84.50;;;;;;5098170;28;20469;-57
2022/08/08 07:15:31;;;;;;;4.83;3.50;;;21.20;85.70;;;;;;5098114;28;20434;-58
2022/08/08 07:18:03;;;;;;;4.73;3.20;;;21.30;84.30;;;;;;5098616;28;20432;-57
2022/08/08 07:20:35;;;;;;;6.30;3.50;;;21.40;83.80;;;;;;5098493;28;20437;-56
2022/08/08 07:23:04;;;;;;;9.30;3.20;;;21.50;80.50;;;;;;5098873;28;20487;-58
2022/08/08 07:25:33;;;;;;;3.20;2.80;;;21.60;81.30;;;;;;5098564;28;20806;-56
2022/08/08 07:28:07;;;;;;;5.13;3.40;;;21.70;82.00;;;;;;5098307;28;20487;-49
2022/08/08 07:30:35;;;;;;;7.93;3.37;;;21.70;81.00;;;;;;5100226;28;20429;-60
2022/08/08 07:33:04;;;;;;;4.30;3.20;;;21.90;78.60;;;;;;5099031;28;20460;-58
2022/08/08 07:35:32;;;;;;;4.47;3.20;;;22.00;77.30;;;;;;5097945;28;20448;-56
2022/08/08 07:38:00;;;;;;;3.07;2.67;;;22.10;76.30;;;;;;5097854;28;20480;-53
2022/08/08 07:40:29;;;;;;;5.10;3.10;;;22.20;76.30;;;;;;5097706;28;20471;-56
2022/08/08 07:42:56;;;;;;;4.40;3.00;;;22.40;76.40;;;;;;5097157;28;20446;-56
2022/08/08 07:45:23;;;;;;;4.00;2.93;;;22.50;74.60;;;;;;5097105;28;20510;-57
2022/08/08 07:47:53;;;;;;;3.47;2.53;;;22.60;73.50;;;;;;5096999;28;20495;-54
2022/08/08 07:50:21;;;;;;;3.60;2.77;;;22.90;74.10;;;;;;5096907;28;20541;-57
2022/08/08 07:52:51;;;;;;;5.40;3.27;;;23.30;74.10;;;;;;5096773;28;20449;-56
2022/08/08 07:55:23;;;;;;;6.73;3.67;;;24.50;71.40;;;;;;5100388;28;20483;-57
2022/08/08 07:58:01;;;;;;;8.40;2.90;;;26.40;66.00;;;;;;5101124;28;20444;-60
2022/08/08 08:00:38;;;;;;;6.13;3.20;;;28.80;59.10;;;;;;5101073;28;20914;-59
2022/08/08 08:03:07;;;;;;;7.00;3.37;;;30.70;53.20;;;;;;5100259;28;20477;-49
2022/08/08 08:05:40;;;;;;;3.43;3.13;;;32.50;49.70;;;;;;5100307;28;20460;-55
2022/08/08 08:08:13;;;;;;;3.90;3.57;;;33.80;45.80;;;;;;5100029;28;21017;-52
2022/08/08 08:10:40;;;;;;;5.93;3.70;;;35.00;43.60;;;;;;5100218;28;20429;-58
2022/08/08 08:13:20;;;;;;;5.20;3.37;;;36.00;40.60;;;;;;5100396;28;20834;-59
2022/08/08 08:15:50;;;;;;;4.73;3.97;;;36.70;38.70;;;;;;5100713;28;20840;-56
2022/08/08 08:18:21;;;;;;;5.00;4.30;;;37.60;37.30;;;;;;5100132;28;20441;-58
2022/08/08 08:20:52;;;;;;;6.57;3.90;;;38.10;36.70;;;;;;5100484;28;20445;-58
2022/08/08 08:23:19;;;;;;;4.53;3.60;;;38.60;35.30;;;;;;5099577;28;20453;-60
2022/08/08 08:25:45;;;;;;;6.10;3.33;;;38.70;34.20;;;;;;5100407;28;20441;-59
2022/08/08 08:28:15;;;;;;;7.83;3.73;;;38.50;34.30;;;;;;5100382;28;20571;-54
2022/08/08 08:30:43;;;;;;;4.50;4.10;;;38.40;34.20;;;;;;5100302;28;20453;-59
2022/08/08 08:33:10;;;;;;;6.70;4.27;;;38.50;34.30;;;;;;5100055;28;20477;-57
2022/08/08 08:35:37;;;;;;;3.50;2.97;;;38.60;33.70;;;;;;5099990;28;20477;-58
2022/08/08 08:38:06;;;;;;;6.33;3.73;;;38.80;32.80;;;;;;5100146;28;20874;-58
2022/08/08 08:40:33;;;;;;;3.90;3.20;;;39.10;32.20;;;;;;5099820;28;20564;-58
2022/08/08 08:43:01;;;;;;;5.47;2.80;;;39.00;31.80;;;;;;5099344;28;20452;-55
2022/08/08 08:45:29;;;;;;;4.63;2.77;;;39.10;31.60;;;;;;5098973;28;20491;-55
2022/08/08 08:47:56;;;;;;;4.13;3.13;;;39.20;31.20;;;;;;5098826;28;20554;-55
2022/08/08 08:50:24;;;;;;;3.43;3.10;;;39.30;30.70;;;;;;5099274;28;20535;-57
2022/08/08 08:52:54;;;;;;;3.60;2.90;;;39.40;30.80;;;;;;5098770;28;20489;-56
2022/08/08 08:55:23;;;;;;;3.90;3.47;;;39.40;31.00;;;;;;5098979;28;20497;-52
2022/08/08 08:57:52;;;;;;;3.87;3.00;;;39.30;31.00;;;;;;5098514;28;20444;-51
2022/08/08 09:00:19;;;;;;;3.50;3.20;;;39.00;30.50;;;;;;5098979;28;20452;-51
2022/08/08 09:02:50;;;;;;;3.90;3.60;;;38.80;31.20;;;;;;5098322;28;20449;-55
2022/08/08 09:05:18;;;;;;;4.57;3.47;;;38.90;31.10;;;;;;5098380;28;20556;-50
2022/08/08 09:07:47;;;;;;;8.83;2.80;;;39.00;30.60;;;;;;5098020;28;20477;-56
2022/08/08 09:10:15;;;;;;;4.40;3.03;;;38.80;30.60;;;;;;5097842;28;20458;-54
2022/08/08 09:12:46;;;;;;;3.60;2.53;;;38.80;30.50;;;;;;5098026;28;20437;-55
2022/08/08 09:15:13;;;;;;;5.63;3.13;;;38.70;30.50;;;;;;5097904;28;20516;-55
2022/08/08 09:17:41;;;;;;;2.97;2.67;;;38.70;31.00;;;;;;5097565;28;20466;-59
2022/08/08 09:20:10;;;;;;;5.20;2.80;;;38.60;31.10;;;;;;5097411;28;20454;-57
2022/08/08 09:22:37;;;;;;;6.83;3.17;;;38.50;30.30;;;;;;5097225;28;20839;-62
2022/08/08 09:25:05;;;;;;;4.20;2.47;;;38.40;30.00;;;;;;5096983;28;20445;-50
2022/08/08 09:27:33;;;;;;;3.63;2.40;;;38.20;31.00;;;;;;5096931;28;20468;-54
2022/08/08 09:30:03;;;;;;;2.67;2.43;;;38.30;30.60;;;;;;5096803;28;20499;-61
2022/08/08 09:32:38;;;;;;;4.97;2.60;;;38.30;30.40;;;;;;5096740;28;20438;-51
2022/08/08 09:35:08;;;;;;;3.43;3.10;;;38.40;30.10;;;;;;5097177;28;20445;-57
2022/08/08 09:37:45;;;;;;;4.30;2.53;;;38.40;30.00;;;;;;5097223;28;20555;-59
2022/08/08 09:40:15;;;;;;;4.13;2.43;;;38.20;30.30;;;;;;5097298;28;20433;-59
2022/08/08 09:42:47;;;;;;;2.40;1.90;;;38.20;30.60;;;;;;5096626;28;21135;-58
2022/08/08 09:45:20;;;;;;;2.97;2.67;;;38.10;30.30;;;;;;5096929;28;20445;-57
2022/08/08 09:47:48;;;;;;;2.93;2.63;;;38.10;30.80;;;;;;5096756;28;20469;-48
2022/08/08 09:50:16;;;;;;;4.90;3.13;;;38.20;30.30;;;;;;5096805;28;20445;-60
2022/08/08 09:52:50;;;;;;;3.07;2.77;;;37.90;30.70;;;;;;5097068;28;20529;-60
2022/08/08 09:55:18;;;;;;;4.83;3.20;;;37.90;30.40;;;;;;5096139;28;20461;-52
2022/08/08 09:57:47;;;;;;;2.57;2.37;;;37.90;30.40;;;;;;5096170;28;20457;-57
2022/08/08 10:00:18;;;;;;;3.23;2.17;;;37.90;30.50;;;;;;5096290;28;20524;-55
2022/08/08 10:02:51;;;;;;;3.23;2.30;;;38.00;30.20;;;;;;5096177;28;20481;-55
2022/08/08 10:05:20;;;;;;;5.80;3.13;;;37.90;30.10;;;;;;5095871;28;20476;-50
2022/08/08 10:07:57;;;;;;;4.60;2.67;;;37.80;30.50;;;;;;5097932;28;20461;-56
2022/08/08 10:10:25;;;;;;;2.93;2.23;;;37.80;30.50;;;;;;5096478;28;20532;-55
2022/08/08 10:12:53;;;;;;;5.13;2.33;;;37.90;30.10;;;;;;5095422;28;20452;-60
2022/08/08 10:15:22;;;;;;;4.03;3.13;;;37.90;30.00;;;;;;5095899;28;20429;-57
2022/08/08 10:17:51;;;;;;;2.50;2.10;;;37.50;30.50;;;;;;5095375;28;20455;-58
2022/08/08 10:20:18;;;;;;;4.20;3.20;;;37.10;30.20;;;;;;5095641;28;20568;-55
2022/08/08 10:22:57;;;;;;;3.30;2.60;;;36.80;31.00;;;;;;5095673;28;20751;-63
2022/08/08 10:25:25;;;;;;;3.10;2.30;;;35.90;31.80;;;;;;5095680;28;20446;-57
2022/08/08 10:27:54;;;;;;;2.80;2.60;;;34.80;32.80;;;;;;5095790;28;20464;-54
2022/08/08 10:30:23;;;;;;;5.87;2.77;;;34.10;34.00;;;;;;5096622;28;20449;-57
2022/08/08 10:32:51;;;;;;;2.70;2.13;;;33.60;33.60;;;;;;5096699;28;20492;-58
2022/08/08 10:35:21;;;;;;;3.53;2.63;;;33.00;34.80;;;;;;5097754;28;20433;-60
2022/08/08 10:37:56;;;;;;;3.00;2.53;;;32.90;35.70;;;;;;5096429;28;20870;-55
2022/08/08 10:40:24;;;;;;;5.93;2.90;;;32.90;35.40;;;;;;5095217;28;20440;-52
2022/08/08 10:42:55;;;;;;;2.50;2.30;;;32.90;35.60;;;;;;5096467;28;20444;-57
2022/08/08 10:45:24;;;;;;;2.90;1.93;;;33.20;36.10;;;;;;5095986;28;20469;-53
2022/08/08 10:47:56;;;;;;;2.90;2.60;;;33.60;34.90;;;;;;5095313;28;20511;-55
2022/08/08 10:50:31;;;;;;;4.33;3.50;;;33.50;35.10;;;;;;5095205;28;20426;-55
2022/08/08 10:53:04;;;;;;;5.53;2.97;;;33.50;34.70;;;;;;5095750;28;20443;-56
2022/08/08 10:55:31;;;;;;;2.67;2.47;;;33.00;35.00;;;;;;5095187;28;20449;-52
2022/08/08 10:58:02;;;;;;;5.73;2.77;;;32.80;35.40;;;;;;5095536;28;20473;-54
2022/08/08 11:00:31;;;;;;;2.63;2.40;;;32.80;36.40;;;;;;5096451;28;20438;-60
2022/08/08 11:03:10;;;;;;;4.50;3.73;;;32.80;35.50;;;;;;5095837;28;20461;-58
2022/08/08 11:05:43;;;;;;;2.80;2.50;;;32.40;35.50;;;;;;5099417;28;20449;-50
2022/08/08 11:08:21;;;;;;;3.60;2.17;;;31.80;36.80;;;;;;5098247;28;20491;-53
2022/08/08 11:10:48;;;;;;;2.70;2.50;;;31.50;37.70;;;;;;5095123;28;20470;-52
2022/08/08 11:13:21;;;;;;;2.47;2.27;;;31.50;37.20;;;;;;5094590;28;20986;-53
2022/08/08 11:15:49;;;;;;;3.50;2.27;;;31.50;37.60;;;;;;5095959;28;20465;-52
2022/08/08 11:18:17;;;;;;;3.33;2.83;;;31.40;37.90;;;;;;5096703;28;20456;-49
2022/08/08 11:20:44;;;;;;;2.83;2.63;;;31.10;37.60;;;;;;5095839;28;20457;-52
2022/08/08 11:23:12;;;;;;;2.90;2.60;;;30.70;38.10;;;;;;5095730;28;20465;-50
2022/08/08 11:25:39;;;;;;;3.17;2.87;;;30.30;39.20;;;;;;5096228;28;20442;-52
2022/08/08 11:28:08;;;;;;;5.20;2.70;;;30.00;39.30;;;;;;5095998;28;20457;-55
2022/08/08 11:30:36;;;;;;;2.70;2.47;;;29.70;39.60;;;;;;5100147;28;20426;-51
2022/08/08 11:33:05;;;;;;;3.10;2.50;;;29.50;39.80;;;;;;5100136;28;20445;-54
2022/08/08 11:35:33;;;;;;;5.83;2.70;;;29.30;40.60;;;;;;5100113;28;20810;-49
2022/08/08 11:38:01;;;;;;;3.17;2.37;;;29.20;40.60;;;;;;5100268;28;20426;-54
2022/08/08 11:40:29;;;;;;;3.00;2.40;;;29.20;40.50;;;;;;5099829;28;20445;-54
2022/08/08 11:42:57;;;;;;;2.77;2.47;;;29.20;40.90;;;;;;5100332;28;20440;-52
2022/08/08 11:45:24;;;;;;;3.07;2.77;;;29.40;41.30;;;;;;5099460;28;20442;-53
2022/08/08 11:47:51;;;;;;;3.53;3.23;;;29.40;40.30;;;;;;5100404;28;20480;-48
2022/08/08 11:50:20;;;;;;;4.73;3.07;;;29.30;41.10;;;;;;5100834;28;20568;-48
2022/08/08 11:52:48;;;;;;;3.43;2.67;;;29.30;41.10;;;;;;5100148;28;20441;-55
2022/08/08 11:55:17;;;;;;;4.77;2.50;;;29.30;41.30;;;;;;5100106;28;20438;-52
2022/08/08 11:57:44;;;;;;;3.27;2.97;;;29.50;41.20;;;;;;5100023;28;20548;-53
2022/08/08 12:00:16;;;;;;;5.67;2.80;;;29.60;40.80;;;;;;5098374;28;20487;-53
2022/08/08 12:02:48;;;;;;;4.67;2.93;;;29.50;39.90;;;;;;5098459;28;20926;-54
2022/08/08 12:05:16;;;;;;;6.03;3.00;;;29.40;40.90;;;;;;5098123;28;20441;-49
2022/08/08 12:07:49;;;;;;;6.33;4.97;;;29.30;40.50;;;;;;5098105;28;20865;-52
2022/08/08 12:10:17;;;;;;;3.70;3.00;;;29.40;41.20;;;;;;5098215;28;20479;-53
2022/08/08 12:12:45;;;;;;;9.60;6.13;;;29.50;40.50;;;;;;5097986;28;20558;-54
2022/08/08 12:15:13;;;;;;;6.80;3.43;;;29.60;40.00;;;;;;5098066;28;20464;-52
2022/08/08 12:17:41;;;;;;;7.90;2.80;;;29.60;40.90;;;;;;5097843;28;20444;-53
2022/08/08 12:20:09;;;;;;;2.87;2.60;;;29.70;40.00;;;;;;5098132;28;20440;-55
2022/08/08 12:22:49;;;;;;;5.83;2.87;;;29.90;40.60;;;;;;5097992;28;20456;-54
2022/08/08 12:25:21;;;;;;;3.80;2.63;;;30.00;40.00;;;;;;5097977;28;20787;-53
2022/08/08 12:27:48;;;;;;;2.80;2.60;;;30.10;39.70;;;;;;5097910;28;20474;-53
2022/08/08 12:30:14;;;;;;;5.53;3.80;;;30.10;40.30;;;;;;5097586;28;20477;-48
2022/08/08 12:32:42;;;;;;;3.67;3.13;;;30.10;40.20;;;;;;5097866;28;20441;-50
2022/08/08 12:35:20;;;;;;;3.40;2.73;;;30.10;39.70;;;;;;5097869;28;20449;-54
2022/08/08 12:38:02;;;;;;;5.23;3.20;;;30.00;39.00;;;;;;5097930;28;20461;-51
2022/08/08 12:40:38;;;;;;;2.50;2.30;;;29.80;39.70;;;;;;5076960;28;20415;-47
2022/08/08 12:43:05;;;;;;;7.63;4.30;;;29.60;40.00;;;;;;5077100;28;20499;-55
2022/08/08 12:45:36;;;;;;;4.10;3.47;;;29.50;40.50;;;;;;5077492;28;20525;-56
2022/08/08 12:48:05;;;;;;;4.23;3.00;;;29.20;40.50;;;;;;5077542;28;20438;-48
2022/08/08 12:50:42;;;;;;;6.77;2.90;;;29.10;40.80;;;;;;5077448;28;20500;-56
2022/08/08 12:53:22;;;;;;;3.57;3.07;;;28.90;40.90;;;;;;5077615;28;20869;-53
2022/08/08 12:55:57;;;;;;;4.90;3.27;;;28.80;41.50;;;;;;5077727;28;20470;-48
2022/08/08 12:58:24;;;;;;;3.57;2.60;;;28.70;41.50;;;;;;5078122;28;20442;-53
2022/08/08 13:00:51;;;;;;;3.90;2.77;;;28.50;40.90;;;;;;5077839;28;20450;-45
2022/08/08 13:03:28;;;;;;;3.10;2.80;;;28.40;41.40;;;;;;5077874;28;20438;-58
2022/08/08 13:06:06;;;;;;;8.17;3.67;;;28.30;42.20;;;;;;5077646;28;20463;-51
2022/08/08 13:08:45;;;;;;;4.10;3.70;;;28.20;43.40;;;;;;5077078;28;20466;-53
2022/08/08 13:11:21;;;;;;;3.43;2.63;;;28.20;42.50;;;;;;5076687;28;20435;-53
2022/08/08 13:14:00;;;;;;;3.33;2.70;;;28.30;42.30;;;;;;5076695;28;20460;-53
2022/08/08 13:16:28;;;;;;;3.50;2.70;;;28.50;42.20;;;;;;5076829;28;21030;-51
2022/08/08 13:18:56;;;;;;;3.73;3.37;;;28.70;42.10;;;;;;5076366;28;20443;-53
2022/08/08 13:21:23;;;;;;;4.40;2.70;;;28.90;42.00;;;;;;5076267;28;20536;-52
2022/08/08 13:23:52;;;;;;;3.43;2.50;;;29.10;41.50;;;;;;5076585;28;20438;-51
2022/08/08 13:26:19;;;;;;;4.30;3.07;;;29.20;40.50;;;;;;5076730;28;20454;-61
2022/08/08 13:28:45;;;;;;;6.30;2.60;;;29.30;40.80;;;;;;5076642;28;20529;-48
2022/08/08 13:31:14;;;;;;;3.10;2.60;;;29.40;42.10;;;;;;5076104;28;20938;-49